METAR Data
IDs: Format: Raw Decoded Include TAF

Data at: 0647 UTC 18 Sep 2021

EGLF 180620Z AUTO 21001KT 5000 BR NCD 11/11 Q1014